createdAt,value
2018-10-19T00:01:52.583Z,10.50
2018-10-19T00:04:20.437Z,10.30
2018-10-19T00:06:49.457Z,10.90
2018-10-19T00:09:17.353Z,9.90
2018-10-19T00:11:45.194Z,10.90
2018-10-19T00:14:13.017Z,11.43
2018-10-19T00:16:41.334Z,11.40
2018-10-19T00:19:09.155Z,11.13
2018-10-19T00:21:37.143Z,10.90
2018-10-19T00:24:05.268Z,9.83
2018-10-19T00:26:33.113Z,11.27
2018-10-19T00:29:00.995Z,11.87
2018-10-19T00:31:28.776Z,11.20
2018-10-19T00:33:56.620Z,12.50
2018-10-19T00:36:24.508Z,11.57
2018-10-19T00:38:52.839Z,11.93
2018-10-19T00:41:20.653Z,12.00
2018-10-19T00:43:48.533Z,11.90
2018-10-19T00:46:16.504Z,11.27
2018-10-19T00:48:44.310Z,11.80
2018-10-19T00:51:12.227Z,11.47
2018-10-19T00:53:39.960Z,10.83
2018-10-19T00:56:07.786Z,12.17
2018-10-19T00:58:35.609Z,10.73
2018-10-19T01:01:03.503Z,11.73
2018-10-19T01:03:31.352Z,10.67
2018-10-19T01:05:59.206Z,12.30
2018-10-19T01:08:27.292Z,11.53
2018-10-19T01:10:55.292Z,11.33
2018-10-19T01:13:23.077Z,11.53
2018-10-19T01:15:50.946Z,13.10
2018-10-19T01:18:18.791Z,11.60
2018-10-19T01:20:46.618Z,12.57
2018-10-19T01:23:14.741Z,12.23
2018-10-19T01:25:42.518Z,12.60
2018-10-19T01:28:10.874Z,11.70
2018-10-19T01:30:38.738Z,12.10
2018-10-19T01:33:07.043Z,13.20
2018-10-19T01:35:34.903Z,11.20
2018-10-19T01:38:02.790Z,13.17
2018-10-19T01:40:30.623Z,11.60
2018-10-19T01:42:58.761Z,11.60
2018-10-19T01:45:28.730Z,11.10
2018-10-19T01:47:56.740Z,12.50
2018-10-19T01:50:24.351Z,11.40
2018-10-19T01:52:52.014Z,11.70
2018-10-19T01:55:19.671Z,11.80
2018-10-19T01:57:47.284Z,13.47
2018-10-19T02:00:14.991Z,11.87
2018-10-19T02:02:46.370Z,12.13
2018-10-19T02:05:14.320Z,11.40
2018-10-19T02:07:41.872Z,11.60
2018-10-19T02:10:09.506Z,11.47
2018-10-19T02:12:37.165Z,12.70
2018-10-19T02:15:05.795Z,11.90
2018-10-19T02:17:33.427Z,11.93
2018-10-19T02:20:01.029Z,12.60
2018-10-19T02:22:29.027Z,11.63
2018-10-19T02:24:56.566Z,11.60
2018-10-19T02:27:24.172Z,11.67
2018-10-19T02:29:51.824Z,12.77
2018-10-19T02:32:19.420Z,12.57
2018-10-19T02:34:47.021Z,11.70
2018-10-19T02:37:14.654Z,11.60
2018-10-19T02:39:42.224Z,10.77
2018-10-19T02:42:14.888Z,11.23
2018-10-19T02:44:42.420Z,12.20
2018-10-19T02:47:10.126Z,12.30
2018-10-19T02:49:37.664Z,12.10
2018-10-19T02:52:06.025Z,12.07
2018-10-19T02:54:33.625Z,13.60
2018-10-19T02:57:01.317Z,11.90
2018-10-19T02:59:28.970Z,12.03
2018-10-19T03:01:56.570Z,10.73
2018-10-19T03:04:24.177Z,11.33
2018-10-19T03:06:51.824Z,12.17
2018-10-19T03:09:19.501Z,11.07
2018-10-19T03:11:47.059Z,11.90
2018-10-19T03:14:14.622Z,10.87
2018-10-19T03:16:42.231Z,10.87
2018-10-19T03:19:10.152Z,11.60
2018-10-19T03:21:38.104Z,11.30
2018-10-19T03:24:05.830Z,11.83
2018-10-19T03:26:33.471Z,11.73
2018-10-19T03:29:01.046Z,10.73
2018-10-19T03:31:28.612Z,11.70
2018-10-19T03:33:56.208Z,12.70
2018-10-19T03:36:23.767Z,11.20
2018-10-19T03:38:51.854Z,12.17
2018-10-19T03:41:19.604Z,10.90
2018-10-19T03:43:47.235Z,10.93
2018-10-19T03:46:14.817Z,11.53
2018-10-19T03:48:43.036Z,11.80
2018-10-19T03:51:10.764Z,12.60
2018-10-19T03:53:38.260Z,11.67
2018-10-19T03:56:05.993Z,11.33
2018-10-19T03:58:34.054Z,12.17
2018-10-19T04:01:01.662Z,11.30
2018-10-19T04:03:29.353Z,10.93
2018-10-19T04:05:56.980Z,12.20
2018-10-19T04:08:25.001Z,11.67
2018-10-19T04:10:52.672Z,11.70
2018-10-19T04:13:20.374Z,12.37
2018-10-19T04:15:48.071Z,13.27
2018-10-19T04:18:15.734Z,12.00
2018-10-19T04:20:43.287Z,11.47
2018-10-19T04:23:11.124Z,12.17
2018-10-19T04:25:39.763Z,12.03
2018-10-19T04:28:07.378Z,11.57
2018-10-19T04:30:36.563Z,13.00
2018-10-19T04:33:04.908Z,13.20
2018-10-19T04:35:32.552Z,12.83
2018-10-19T04:38:00.658Z,12.03
2018-10-19T04:40:28.259Z,13.13
2018-10-19T04:42:55.875Z,11.73
2018-10-19T04:45:23.567Z,13.43
2018-10-19T04:47:51.430Z,12.27
2018-10-19T04:50:18.917Z,12.87
2018-10-19T04:52:46.567Z,13.90
2018-10-19T04:55:16.465Z,13.50
2018-10-19T04:57:44.153Z,12.30
2018-10-19T05:00:12.547Z,14.33
2018-10-19T05:02:40.181Z,12.83
2018-10-19T05:05:08.184Z,13.57
2018-10-19T05:07:36.586Z,13.00
2018-10-19T05:10:04.770Z,12.03
2018-10-19T05:12:32.466Z,13.23
2018-10-19T05:15:00.109Z,13.37
2018-10-19T05:17:27.821Z,13.83
2018-10-19T05:19:58.258Z,14.20
2018-10-19T05:22:25.779Z,12.33
2018-10-19T05:24:53.487Z,12.90
2018-10-19T05:27:20.993Z,12.30
2018-10-19T05:29:48.615Z,13.47
2018-10-19T05:32:16.242Z,13.50
2018-10-19T05:34:43.792Z,13.00
2018-10-19T05:37:11.359Z,13.70
2018-10-19T05:39:38.964Z,13.30
2018-10-19T05:42:07.107Z,13.37
2018-10-19T05:44:34.770Z,12.27
2018-10-19T05:47:02.498Z,11.90
2018-10-19T05:49:30.128Z,12.93
2018-10-19T05:51:57.805Z,13.60
2018-10-19T05:54:25.856Z,13.80
2018-10-19T05:56:53.718Z,14.20
2018-10-19T05:59:21.337Z,14.13
2018-10-19T06:01:49.436Z,14.13
2018-10-19T06:04:17.028Z,12.70
2018-10-19T06:06:44.799Z,13.40
2018-10-19T06:09:12.427Z,14.50
2018-10-19T06:11:40.665Z,15.07
2018-10-19T06:14:08.962Z,13.53
2018-10-19T06:16:38.402Z,14.13
2018-10-19T06:19:06.579Z,14.37
2018-10-19T06:21:34.104Z,14.90
2018-10-19T06:24:01.684Z,15.00
2018-10-19T06:26:29.339Z,14.43
2018-10-19T06:28:57.184Z,13.83
2018-10-19T06:31:24.770Z,12.77
2018-10-19T06:33:52.534Z,13.43
2018-10-19T06:36:20.079Z,13.50
2018-10-19T06:38:47.882Z,14.70
2018-10-19T06:41:15.511Z,14.37
2018-10-19T06:43:43.128Z,14.50
2018-10-19T06:46:10.798Z,15.10
2018-10-19T06:48:38.593Z,15.03
2018-10-19T06:51:06.515Z,15.57
2018-10-19T06:53:34.265Z,13.33
2018-10-19T06:56:01.946Z,16.60
2018-10-19T06:58:29.543Z,17.00
2018-10-19T07:00:57.187Z,16.00
2018-10-19T07:03:24.765Z,15.60
2018-10-19T07:05:52.469Z,17.30
2018-10-19T07:08:20.083Z,16.10
2018-10-19T07:10:48.252Z,15.80
2018-10-19T07:13:16.000Z,16.80
2018-10-19T07:15:43.779Z,16.93
2018-10-19T07:18:11.453Z,16.20
2018-10-19T07:20:39.079Z,17.20
2018-10-19T07:23:06.702Z,18.07
2018-10-19T07:25:34.302Z,17.23
2018-10-19T07:28:01.947Z,18.77
2018-10-19T07:30:29.650Z,17.37
2018-10-19T07:32:57.306Z,17.70
2018-10-19T07:35:24.939Z,18.87
2018-10-19T07:37:52.729Z,17.17
2018-10-19T07:40:20.286Z,18.40
2018-10-19T07:42:47.883Z,18.53
2018-10-19T07:45:15.487Z,18.50
2018-10-19T07:47:43.161Z,18.90
2018-10-19T07:50:10.863Z,19.40
2018-10-19T07:52:39.394Z,18.70
2018-10-19T07:55:13.587Z,18.70
2018-10-19T07:57:41.191Z,18.73
2018-10-19T08:00:09.847Z,18.80
2018-10-19T08:02:37.523Z,18.70
2018-10-19T08:05:06.112Z,19.30
2018-10-19T08:07:38.682Z,18.67
2018-10-19T08:10:07.907Z,20.43
2018-10-19T08:12:35.482Z,20.00
2018-10-19T08:15:03.483Z,18.77
2018-10-19T08:17:31.098Z,17.80
2018-10-19T08:19:58.674Z,18.80
2018-10-19T08:22:28.853Z,18.47
2018-10-19T08:24:56.475Z,19.00
2018-10-19T08:27:24.182Z,18.80
2018-10-19T08:29:51.747Z,19.33
2018-10-19T08:32:19.333Z,18.67
2018-10-19T08:34:51.546Z,19.50
2018-10-19T08:37:19.134Z,19.23
2018-10-19T08:39:46.860Z,19.47
2018-10-19T08:42:14.447Z,19.20
2018-10-19T08:44:42.190Z,18.10
2018-10-19T08:47:13.855Z,20.10
2018-10-19T08:49:42.516Z,18.50
2018-10-19T08:52:10.142Z,18.97
2018-10-19T08:54:37.892Z,19.40
2018-10-19T08:57:06.215Z,19.97
2018-10-19T08:59:33.912Z,20.37
2018-10-19T09:02:05.314Z,18.57
2018-10-19T09:04:32.899Z,18.23
2018-10-19T09:07:00.505Z,19.87
2018-10-19T09:09:28.059Z,20.57
2018-10-19T09:11:55.645Z,21.00
2018-10-19T09:14:34.480Z,20.63
2018-10-19T09:17:02.342Z,18.10
2018-10-19T09:19:30.097Z,19.57
2018-10-19T09:21:57.930Z,19.20
2018-10-19T09:24:25.783Z,18.60
2018-10-19T09:26:58.266Z,21.00
2018-10-19T09:29:26.078Z,19.53
2018-10-19T09:31:53.900Z,20.47
2018-10-19T09:34:21.643Z,19.40
2018-10-19T09:36:49.661Z,20.70
2018-10-19T09:39:17.418Z,19.23
2018-10-19T09:41:49.138Z,19.90
2018-10-19T09:44:16.937Z,17.60
2018-10-19T09:46:44.765Z,18.70
2018-10-19T09:49:13.576Z,18.77
2018-10-19T09:51:41.732Z,18.30
2018-10-19T09:54:14.705Z,18.77
2018-10-19T09:56:42.576Z,18.27
2018-10-19T09:59:10.448Z,18.30
2018-10-19T10:01:39.546Z,17.10
2018-10-19T10:04:07.734Z,17.97
2018-10-19T10:06:35.560Z,17.60
2018-10-19T10:09:10.330Z,18.30
2018-10-19T10:11:38.259Z,17.97
2018-10-19T10:14:06.531Z,17.97
2018-10-19T10:16:34.681Z,18.00
2018-10-19T10:19:02.565Z,20.07
2018-10-19T10:21:30.427Z,18.00
2018-10-19T10:23:58.310Z,18.60
2018-10-19T10:26:27.281Z,17.87
2018-10-19T10:28:55.197Z,17.87
2018-10-19T10:31:23.071Z,18.43
2018-10-19T10:33:51.113Z,18.20
2018-10-19T10:36:19.012Z,16.93
2018-10-19T10:38:47.059Z,18.20
2018-10-19T10:41:14.834Z,18.10
2018-10-19T10:43:42.657Z,18.70
2018-10-19T10:46:10.561Z,18.33
2018-10-19T10:48:38.404Z,17.03
2018-10-19T10:51:07.207Z,19.37
2018-10-19T10:53:35.243Z,18.13
2018-10-19T10:56:03.155Z,18.50
2018-10-19T10:58:30.987Z,18.90
2018-10-19T11:00:59.170Z,18.03
2018-10-19T11:03:26.996Z,18.80
2018-10-19T11:05:55.032Z,18.80
2018-10-19T11:08:22.822Z,17.83
2018-10-19T11:10:50.673Z,17.33
2018-10-19T11:13:18.480Z,18.80
2018-10-19T11:15:46.236Z,17.93
2018-10-19T11:18:14.065Z,17.57
2018-10-19T11:20:41.923Z,18.30
2018-10-19T11:23:09.875Z,18.40
2018-10-19T11:25:37.825Z,19.03
2018-10-19T11:28:06.468Z,18.53
2018-10-19T11:30:34.229Z,17.77
2018-10-19T11:33:02.258Z,18.30
2018-10-19T11:35:30.056Z,18.10
2018-10-19T11:37:57.988Z,18.27
2018-10-19T11:40:32.061Z,18.50
2018-10-19T11:42:59.934Z,16.87
2018-10-19T11:45:29.349Z,18.77
2018-10-19T11:47:57.658Z,18.87
2018-10-19T11:50:25.515Z,18.40
2018-10-19T11:52:53.410Z,16.47
2018-10-19T11:55:23.956Z,17.77
2018-10-19T11:57:52.228Z,17.10
2018-10-19T12:00:20.167Z,17.87
2018-10-19T12:02:48.151Z,17.57
2018-10-19T12:05:16.067Z,17.60
2018-10-19T12:07:43.922Z,18.13
2018-10-19T12:10:12.756Z,16.70
2018-10-19T12:12:41.168Z,18.80
2018-10-19T12:15:10.541Z,16.47
2018-10-19T12:17:38.978Z,17.40
2018-10-19T12:20:08.697Z,17.47
2018-10-19T12:22:36.623Z,17.33
2018-10-19T12:25:06.082Z,16.97
2018-10-19T12:27:33.945Z,18.87
2018-10-19T12:30:01.780Z,17.60
2018-10-19T12:32:29.799Z,16.77
2018-10-19T12:34:57.606Z,18.30
2018-10-19T12:37:30.578Z,18.20
2018-10-19T12:39:58.522Z,18.20
2018-10-19T12:42:26.303Z,18.17
2018-10-19T12:44:55.048Z,19.53
2018-10-19T12:47:41.428Z,18.50
2018-10-19T12:50:09.434Z,17.77
2018-10-19T12:52:37.258Z,19.13
2018-10-19T12:55:06.623Z,17.63
2018-10-19T12:57:34.299Z,18.83
2018-10-19T13:00:01.844Z,18.20
2018-10-19T13:02:29.575Z,17.90
2018-10-19T13:04:57.224Z,19.00
2018-10-19T13:07:24.792Z,17.67
2018-10-19T13:09:52.850Z,18.13
2018-10-19T13:12:20.624Z,18.60
2018-10-19T13:14:48.248Z,17.93
2018-10-19T13:17:15.869Z,17.17
2018-10-19T13:19:43.990Z,18.23
2018-10-19T13:22:11.595Z,18.27
2018-10-19T13:24:39.227Z,17.57
2018-10-19T13:27:07.082Z,18.57
2018-10-19T13:29:34.855Z,17.90
2018-10-19T13:32:02.478Z,19.43
2018-10-19T13:34:30.212Z,19.77
2018-10-19T13:36:58.155Z,19.27
2018-10-19T13:39:25.758Z,19.53
2018-10-19T13:41:53.366Z,21.70
2018-10-19T13:44:20.936Z,20.20
2018-10-19T13:46:48.514Z,21.23
2018-10-19T13:49:16.123Z,20.50
2018-10-19T13:51:43.703Z,20.30
2018-10-19T13:54:11.412Z,20.60
2018-10-19T13:56:39.025Z,20.80
2018-10-19T13:59:06.720Z,22.27
2018-10-19T14:01:34.295Z,21.97
2018-10-19T14:04:01.849Z,20.27
2018-10-19T14:06:29.522Z,19.27
2018-10-19T14:08:57.091Z,20.20
2018-10-19T14:11:24.659Z,21.30
2018-10-19T14:13:52.276Z,21.23
2018-10-19T14:16:19.856Z,19.50
2018-10-19T14:18:47.462Z,20.93
2018-10-19T14:21:15.141Z,19.77
2018-10-19T14:23:42.605Z,20.47
2018-10-19T14:26:10.238Z,19.77
2018-10-19T14:28:37.780Z,20.70
2018-10-19T14:31:05.460Z,20.37
2018-10-19T14:33:33.365Z,19.80
2018-10-19T14:36:00.786Z,21.00
2018-10-19T14:38:28.642Z,21.07
2018-10-19T14:40:56.432Z,21.80
2018-10-19T14:43:23.992Z,20.37
2018-10-19T14:45:51.694Z,20.50
2018-10-19T14:48:19.238Z,21.70
2018-10-19T14:50:46.863Z,20.53
2018-10-19T14:53:14.509Z,21.13
2018-10-19T14:55:42.021Z,20.40
2018-10-19T14:58:09.603Z,20.60
2018-10-19T15:00:37.224Z,18.33
2018-10-19T15:03:09.342Z,21.00
2018-10-19T15:05:37.016Z,20.03
2018-10-19T15:08:04.594Z,21.07
2018-10-19T15:10:32.539Z,18.90
2018-10-19T15:12:59.789Z,18.60
2018-10-19T15:15:27.603Z,20.83
2018-10-19T15:17:55.171Z,18.43
2018-10-19T15:20:22.743Z,19.07
2018-10-19T15:22:50.312Z,18.00
2018-10-19T15:25:17.873Z,18.40
2018-10-19T15:27:46.129Z,17.00
2018-10-19T15:30:15.622Z,17.90
2018-10-19T15:32:43.068Z,16.23
2018-10-19T15:35:10.745Z,15.27
2018-10-19T15:37:38.672Z,15.80
2018-10-19T15:40:07.298Z,14.33
2018-10-19T15:42:34.924Z,15.17
2018-10-19T15:45:02.727Z,14.90
2018-10-19T15:47:31.098Z,15.37
2018-10-19T15:49:58.666Z,15.50
2018-10-19T15:52:26.880Z,15.73
2018-10-19T15:54:54.445Z,17.50
2018-10-19T15:57:22.269Z,16.10
2018-10-19T15:59:50.003Z,15.03
2018-10-19T16:02:17.880Z,16.27
2018-10-19T16:04:46.101Z,17.70
2018-10-19T16:07:13.946Z,17.20
2018-10-19T16:09:41.638Z,18.73
2018-10-19T16:12:09.329Z,17.53
2018-10-19T16:14:36.872Z,18.17
2018-10-19T16:17:04.578Z,17.80
2018-10-19T16:19:32.162Z,18.07
2018-10-19T16:21:59.756Z,17.10
2018-10-19T16:24:27.373Z,16.50
2018-10-19T16:26:55.038Z,17.67
2018-10-19T16:29:22.675Z,16.77
2018-10-19T16:31:50.333Z,16.17
2018-10-19T16:34:18.098Z,16.43
2018-10-19T16:36:46.030Z,15.40
2018-10-19T16:39:13.745Z,15.47
2018-10-19T16:41:41.284Z,14.03
2018-10-19T16:44:08.819Z,14.60
2018-10-19T16:46:36.405Z,14.17
2018-10-19T16:49:04.068Z,14.17
2018-10-19T16:51:31.596Z,17.00
2018-10-19T16:53:59.191Z,13.80
2018-10-19T16:56:27.038Z,13.87
2018-10-19T16:58:54.740Z,14.90
2018-10-19T17:01:22.409Z,13.33
2018-10-19T17:03:49.953Z,13.43
2018-10-19T17:06:17.538Z,13.13
2018-10-19T17:08:45.279Z,14.27
2018-10-19T17:11:12.964Z,13.77
2018-10-19T17:13:40.666Z,12.13
2018-10-19T17:16:08.236Z,14.13
2018-10-19T17:18:35.900Z,13.70
2018-10-19T17:21:03.775Z,13.20
2018-10-19T17:23:31.568Z,13.93
2018-10-19T17:25:59.234Z,13.70
2018-10-19T17:28:26.991Z,12.77
2018-10-19T17:30:54.619Z,10.10
2018-10-19T17:33:22.467Z,11.53
2018-10-19T17:35:49.951Z,9.10
2018-10-19T17:38:17.617Z,10.00
2018-10-19T17:40:45.368Z,10.23
2018-10-19T17:43:13.055Z,9.20
2018-10-19T17:45:40.763Z,8.73
2018-10-19T17:48:08.379Z,7.50
2018-10-19T17:50:36.133Z,8.50
2018-10-19T17:53:04.029Z,7.93
2018-10-19T17:55:31.694Z,7.53
2018-10-19T17:57:59.584Z,7.80
2018-10-19T18:00:27.320Z,7.30
2018-10-19T18:02:54.989Z,7.30
2018-10-19T18:05:22.562Z,7.07
2018-10-19T18:07:50.260Z,7.03
2018-10-19T18:10:17.853Z,6.63
2018-10-19T18:12:45.433Z,6.50
2018-10-19T18:15:13.142Z,6.30
2018-10-19T18:17:40.781Z,6.80
2018-10-19T18:20:08.849Z,6.73
2018-10-19T18:22:37.125Z,6.80
2018-10-19T18:25:05.178Z,6.90
2018-10-19T18:27:33.013Z,6.40
2018-10-19T18:30:00.702Z,7.20
2018-10-19T18:32:28.417Z,6.23
2018-10-19T18:34:56.251Z,6.60
2018-10-19T18:37:23.867Z,6.50
2018-10-19T18:39:51.508Z,7.30
2018-10-19T18:42:19.236Z,7.90
2018-10-19T18:44:46.999Z,8.60
2018-10-19T18:47:14.757Z,7.30
2018-10-19T18:49:42.382Z,8.53
2018-10-19T18:52:10.108Z,8.90
2018-10-19T18:54:37.842Z,8.73
2018-10-19T18:57:05.555Z,8.13
2018-10-19T18:59:33.069Z,7.67
2018-10-19T19:02:00.866Z,7.77
2018-10-19T19:04:28.574Z,6.93
2018-10-19T19:06:56.307Z,6.97
2018-10-19T19:09:23.880Z,7.97
2018-10-19T19:11:51.521Z,7.90
2018-10-19T19:14:19.111Z,7.73
2018-10-19T19:16:46.687Z,7.53
2018-10-19T19:19:14.315Z,7.60
2018-10-19T19:21:42.037Z,7.93
2018-10-19T19:25:16.239Z,7.70
2018-10-19T19:27:44.051Z,7.50
2018-10-19T19:30:12.040Z,8.00
2018-10-19T19:32:44.405Z,9.20
2018-10-19T19:35:12.426Z,8.10
2018-10-19T19:37:40.491Z,8.70
2018-10-19T19:40:08.683Z,8.00
2018-10-19T19:42:41.644Z,8.20
2018-10-19T19:45:09.479Z,7.73
2018-10-19T19:47:43.075Z,8.30
2018-10-19T19:50:11.072Z,9.40
2018-10-19T19:52:38.904Z,9.10
2018-10-19T19:55:06.620Z,9.90
2018-10-19T19:57:34.513Z,8.47
2018-10-19T20:00:02.505Z,8.67
2018-10-19T20:02:30.278Z,8.07
2018-10-19T20:04:58.195Z,9.23
2018-10-19T20:07:26.252Z,8.50
2018-10-19T20:09:54.272Z,7.70
2018-10-19T20:12:22.454Z,7.80
2018-10-19T20:14:50.311Z,8.87
2018-10-19T20:17:18.225Z,8.77
2018-10-19T20:19:47.327Z,8.87
2018-10-19T20:22:15.096Z,9.20
2018-10-19T20:24:43.214Z,8.20
2018-10-19T20:27:11.324Z,8.00
2018-10-19T20:29:39.237Z,7.90
2018-10-19T20:32:07.285Z,8.20
2018-10-19T20:34:35.119Z,9.43
2018-10-19T20:37:03.045Z,9.60
2018-10-19T20:39:30.866Z,8.80
2018-10-19T20:41:58.823Z,8.20
2018-10-19T20:44:26.939Z,8.30
2018-10-19T20:46:55.179Z,8.93
2018-10-19T20:49:23.050Z,8.27
2018-10-19T20:51:50.846Z,8.80
2018-10-19T20:54:18.640Z,8.30
2018-10-19T20:56:46.452Z,8.95
2018-10-19T20:59:14.405Z,8.65
2018-10-19T21:01:42.502Z,8.20
2018-10-19T21:04:10.328Z,9.15
2018-10-19T21:06:38.305Z,9.60
2018-10-19T21:09:08.285Z,9.73
2018-10-19T21:11:36.713Z,9.00
2018-10-19T21:14:04.880Z,8.73
2018-10-19T21:19:07.583Z,9.30
2018-10-19T21:21:35.271Z,8.40
2018-10-19T21:24:05.882Z,8.60
2018-10-19T21:26:36.182Z,8.25
2018-10-19T21:29:04.444Z,8.90
2018-10-19T21:31:33.254Z,9.20
2018-10-19T21:34:01.846Z,9.43
2018-10-19T21:36:29.625Z,9.63
2018-10-19T21:38:57.426Z,9.05
2018-10-19T21:41:25.376Z,9.75
2018-10-19T21:43:53.058Z,9.88
2018-10-19T21:46:21.238Z,8.93
2018-10-19T21:48:49.301Z,9.10
2018-10-19T21:51:17.088Z,9.93
2018-10-19T21:53:45.304Z,10.30
2018-10-19T21:56:13.166Z,9.20
2018-10-19T21:58:40.873Z,9.53
2018-10-19T22:01:08.825Z,9.73
2018-10-19T22:03:36.815Z,8.80
2018-10-19T22:06:04.848Z,10.15
2018-10-19T22:08:32.809Z,10.03
2018-10-19T22:11:00.605Z,9.43
2018-10-19T22:13:28.884Z,10.70
2018-10-19T22:15:56.899Z,10.93
2018-10-19T22:18:24.980Z,11.05
2018-10-19T22:20:52.934Z,9.05
2018-10-19T22:23:20.998Z,10.05
2018-10-19T22:25:48.798Z,9.48
2018-10-19T22:28:16.675Z,9.40
2018-10-19T22:30:44.635Z,8.75
2018-10-19T22:33:12.411Z,9.90
2018-10-19T22:35:40.187Z,10.23
2018-10-19T22:38:08.418Z,9.75
2018-10-19T22:40:37.678Z,9.75
2018-10-19T22:43:05.716Z,8.68
2018-10-19T22:45:33.495Z,9.40
2018-10-19T22:48:01.323Z,9.05
2018-10-19T22:50:30.174Z,9.70
2018-10-19T22:52:58.047Z,9.35
2018-10-19T22:55:26.007Z,9.28
2018-10-19T22:57:53.775Z,9.30
2018-10-19T23:00:21.678Z,8.25
2018-10-19T23:02:49.522Z,9.18
2018-10-19T23:05:17.457Z,10.28
2018-10-19T23:07:45.405Z,8.93
2018-10-19T23:10:13.228Z,9.58
2018-10-19T23:12:43.928Z,9.43
2018-10-19T23:15:11.800Z,9.68
2018-10-19T23:17:39.706Z,9.58
2018-10-19T23:20:08.106Z,9.45
2018-10-19T23:22:35.951Z,9.50
2018-10-19T23:25:04.655Z,8.55
2018-10-19T23:27:32.529Z,9.00
2018-10-19T23:30:00.386Z,8.60
2018-10-19T23:32:28.347Z,9.45
2018-10-19T23:34:56.203Z,9.20
2018-10-19T23:37:24.124Z,9.25
2018-10-19T23:39:51.854Z,8.83
2018-10-19T23:42:19.458Z,9.68
2018-10-19T23:44:47.175Z,9.05
2018-10-19T23:47:14.915Z,8.90
2018-10-19T23:49:42.493Z,8.83
2018-10-19T23:52:10.104Z,8.98
2018-10-19T23:54:37.668Z,9.23
2018-10-19T23:57:05.322Z,9.15
2018-10-19T23:59:32.939Z,9.35
